• Join FlightAware (Why Join?)
  • Login
  • US Flag 
08:47AM EDT


 

Airport Tracker/Info


-or-


 

Live Flight TrackerFlight Track Log ✈ UCA3597 ✈ 05-Dec-2013 ✈ KIAD - KBGM

Flight Track Log - Related Links

Times and Time Zones

All times are in EST time to prevent confusion due to time zone crossing. See the UCA3597 flight status page for this flight to view local times or setup timezone preferences in your user account.

Time Position Orientation Groundspeed Altitude Reporting Facility
EST Latitude Longitude Course Direction KTS MPH feet Rate Location/Type
05:48PM 39.5744 -77.1869 19° North  Level Estimated
05:49PM 39.6441 -77.1563 19° North  Level Estimated
05:50PM 39.7137 -77.1256 19° North  Level Estimated
05:51PM 39.7833 -77.0948 19° North  Level Estimated
05:52PM 39.8529 -77.0640 19° North  Level Estimated
05:53PM 39.9225 -77.0331 19° North  Level Estimated
05:54PM 39.9921 -77.0022 19° North  Level Estimated
05:55PM 40.0617 -76.9712 19° North  Level Estimated
05:56PM 40.1312 -76.9401 19° North  Level Estimated
05:57PM 40.2008 -76.9089 19° North  Level Estimated
05:58PM 40.2703 -76.8777 19° North  Level Estimated
05:59PM 40.3399 -76.8465 19° North  Level Estimated
06:00PM 40.3902 -76.8238 19° North  Level Estimated
06:01PM 40.4404 -76.8011 19° North  Level Estimated
06:02PM 40.4907 -76.7784 19° North  Level Estimated
06:03PM 40.5410 -76.7557 19° North  Level Estimated
06:04PM 40.5912 -76.7329 19° North  Level Estimated
06:05PM 40.6415 -76.7100 19° North  Level Estimated
06:06PM 40.6917 -76.6872 19° North  Level Estimated
06:07PM 40.7420 -76.6643 19° North  Level Estimated
06:08PM 40.7922 -76.6414 19° North  Level Estimated
06:09PM 40.8425 -76.6184 19° North  Level Estimated
06:10PM 40.8927 -76.5954 19° North  Level Estimated
06:11PM 40.9430 -76.5724 19° North  Level Estimated
06:12PM 40.9932 -76.5493 19° North  Level Estimated
06:13PM 41.0434 -76.5262 19° North  Level Estimated
06:14PM 41.0936 -76.5031 19° North  Level Estimated
06:15PM 41.1438 -76.4799 19° North  Level Estimated
06:16PM 41.1940 -76.4567 19° North  Level Estimated
06:17PM 41.2442 -76.4335 19° North  Level Estimated
06:18PM 41.2944 -76.4102 19° North  Level Estimated
06:19PM 41.3446 -76.3869 19° North  Level Estimated
06:20PM 41.3948 -76.3635 19° North  Level Estimated
06:21PM 41.4450 -76.3402 19° North  Level Estimated
06:22PM 41.4952 -76.3167 19° North  Level Estimated
06:23PM 41.5453 -76.2933 19° North  Level Estimated
06:24PM 41.5955 -76.2698 19° North  Level Estimated
06:25PM 41.6457 -76.2463 19° North  Level Estimated
06:26PM 41.6959 -76.2227 19° North  Level Estimated
06:27PM 41.7460 -76.1991 19° North  Level Estimated
06:28PM 41.7962 -76.1755 19° North  Level Estimated
06:29PM 41.8463 -76.1518 19° North  Level Estimated
06:30PM 41.8965 -76.1281 19° North  Level Estimated
06:31PM 41.9466 -76.1043 19° North  Level Estimated
06:32PM 41.9967 -76.0805 19° North  Level Estimated
06:33PM 42.0468 -76.0567 19° North  Level Estimated
06:34PM 42.0970 -76.0328 19° North  Level Estimated
06:35PM 42.1471 -76.0089 19° North  Level Estimated
06:36PM 42.1972 -75.9850 19° North  Level Estimated
06:37PM 42.2084 -75.9796 20° North  Level Estimated
06:38PM 42.2084 -75.9796 35° Northeast  Level Estimated
06:39PM 42.2084 -75.9796 35° Northeast  Level Estimated
06:40PM 42.2084 -75.9796 35° Northeast  Level Estimated
06:41PM 42.2084 -75.9796 35° Northeast  Level Estimated
06:42PM 42.2084 -75.9796 35° Northeast  Level Estimated
06:43PM 42.2084 -75.9796 35° Northeast  Level Estimated
06:44PM 42.2084 -75.9796 35° Northeast  Level Estimated
06:45PM 42.2084 -75.9796 35° Northeast  Level Estimated
06:46PM 42.2084 -75.9796 35° Northeast  Level Estimated
06:47PM 42.2084 -75.9796 35° Northeast  Level Estimated
06:48PM 42.2084 -75.9796 35° Northeast  Level Estimated
06:49PM 42.2084 -75.9796 35° Northeast  Level Estimated
06:50PM 42.2084 -75.9796 35° Northeast  Level Estimated
06:51PM 42.2084 -75.9796 35° Northeast  Level Estimated